Time;durP1;ratioP1;P1;durP2;ratioP2;P2;SDS_P1;SDS_P2;PMS_P1;PMS_P2;Temp;Humidity;BMP_temperature;BMP_pressure;BME280_temperature;BME280_humidity;BME280_pressure;Samples;Min_cycle;Max_cycle;Signal;HPM_P1;HPM_P2
2023/10/15 00:00:16;;;;;;;;;;;8.30;99.90;;;;;;5117347;28;19924;-41
2023/10/15 00:02:42;;;;;;;;;;;8.30;99.90;;;;;;5116873;28;19924;-41
2023/10/15 00:05:09;;;;;;;;;;;8.30;99.90;;;;;;5117258;28;19989;-41
2023/10/15 00:07:35;;;;;;;;;;;8.30;99.90;;;;;;5117289;28;20396;-41
2023/10/15 00:10:00;;;;;;;;;;;8.30;99.90;;;;;;5116042;28;19971;-41
2023/10/15 00:12:26;;;;;;;;;;;8.20;99.90;;;;;;5117427;28;19923;-41
2023/10/15 00:14:51;;;;;;;;;;;8.20;99.90;;;;;;5117403;28;20350;-41
2023/10/15 00:17:17;;;;;;;;;;;8.20;99.90;;;;;;5115942;28;20069;-41
2023/10/15 00:19:43;;;;;;;;;;;8.20;99.90;;;;;;5117170;28;20331;-41
2023/10/15 00:22:08;;;;;;;;;;;8.20;99.90;;;;;;5116969;28;19946;-41
2023/10/15 00:24:34;;;;;;;;;;;8.20;99.90;;;;;;5117271;28;19924;-41
2023/10/15 00:26:59;;;;;;;;;;;8.10;99.90;;;;;;5117252;28;19929;-41
2023/10/15 00:29:25;;;;;;;;;;;8.10;99.90;;;;;;5117007;28;19924;-41
2023/10/15 00:31:51;;;;;;;;;;;8.10;99.90;;;;;;5116754;28;19930;-41
2023/10/15 00:34:17;;;;;;;;;;;8.10;99.90;;;;;;5116664;28;19924;-41
2023/10/15 00:36:43;;;;;;;;;;;8.10;99.90;;;;;;5117147;28;20424;-41
2023/10/15 00:39:21;;;;;;;;;;;8.10;99.90;;;;;;5116674;28;20380;-41
2023/10/15 00:41:47;;;;;;;;;;;8.10;99.90;;;;;;5116809;28;19973;-41
2023/10/15 00:44:14;;;;;;;;;;;8.10;99.90;;;;;;5116758;28;19938;-41
2023/10/15 00:46:40;;;;;;;;;;;8.10;99.90;;;;;;5115313;28;20015;-41
2023/10/15 00:49:10;;;;;;;;;;;8.10;99.90;;;;;;5116650;27;19924;-41
2023/10/15 00:51:41;;;;;;;;;;;8.10;99.90;;;;;;5098590;28;19969;-40
2023/10/15 00:54:11;;;;;;;;;;;8.10;99.90;;;;;;5116703;28;20302;-41
2023/10/15 00:56:37;;;;;;;;;;;8.10;99.90;;;;;;5116391;28;20356;-41
2023/10/15 01:01:34;;;;;;;;;;;8.10;99.90;;;;;;5116437;28;19966;-41
2023/10/15 01:04:00;;;;;;;;;;;8.10;99.90;;;;;;5116318;28;19924;-41
2023/10/15 01:06:37;;;;;;;;;;;8.10;99.90;;;;;;5116113;28;20362;-40
2023/10/15 01:12:18;;;;;;;;;;;8.10;99.90;;;;;;5106784;28;19928;-42
2023/10/15 01:14:44;;;;;;;;;;;8.20;99.90;;;;;;5115020;28;19924;-40
2023/10/15 01:17:10;;;;;;;;;;;8.10;99.90;;;;;;5115912;28;20264;-40
2023/10/15 01:19:36;;;;;;;;;;;8.20;99.90;;;;;;5115772;28;20279;-40
2023/10/15 01:22:07;;;;;;;;;;;8.10;99.90;;;;;;5115891;28;19967;-40
2023/10/15 01:24:38;;;;;;;;;;;8.20;99.90;;;;;;5115957;28;19946;-40
2023/10/15 01:29:36;;;;;;;;;;;8.20;99.90;;;;;;5115826;28;19923;-41
2023/10/15 01:35:00;;;;;;;;;;;8.30;99.90;;;;;;5106151;28;20279;-40
2023/10/15 01:37:26;;;;;;;;;;;8.30;99.90;;;;;;5115647;28;20362;-40
2023/10/15 01:40:00;;;;;;;;;;;8.30;99.90;;;;;;5115623;28;19923;-40
2023/10/15 01:44:58;;;;;;;;;;;8.40;99.90;;;;;;5115375;28;19931;-40
2023/10/15 01:47:28;;;;;;;;;;;8.40;99.90;;;;;;5115412;28;20355;-41
2023/10/15 01:49:56;;;;;;;;;;;8.40;99.90;;;;;;5115424;28;19924;-41
2023/10/15 01:52:39;;;;;;;;;;;8.40;99.90;;;;;;5115527;27;19985;-41
2023/10/15 01:55:05;;;;;;;;;;;8.30;99.90;;;;;;5115324;28;19930;-41
2023/10/15 01:57:31;;;;;;;;;;;8.30;99.90;;;;;;5115143;28;20341;-41
2023/10/15 02:00:06;;;;;;;;;;;8.30;99.90;;;;;;5115250;28;19927;-41
2023/10/15 02:02:32;;;;;;;;;;;8.40;99.90;;;;;;5115165;27;19924;-41
2023/10/15 02:04:58;;;;;;;;;;;8.40;99.90;;;;;;5115410;28;20280;-41
2023/10/15 02:07:24;;;;;;;;;;;8.40;99.90;;;;;;5114836;28;19969;-41
2023/10/15 02:09:51;;;;;;;;;;;8.40;99.90;;;;;;5114895;28;19924;-41
2023/10/15 02:12:20;;;;;;;;;;;8.40;99.90;;;;;;5114805;28;19927;-41
2023/10/15 02:14:47;;;;;;;;;;;8.40;99.90;;;;;;5114773;28;20279;-41
2023/10/15 02:17:19;;;;;;;;;;;8.30;99.90;;;;;;5114932;28;19923;-41
2023/10/15 02:19:47;;;;;;;;;;;8.30;99.90;;;;;;5114908;28;20339;-41
2023/10/15 02:22:13;;;;;;;;;;;8.20;99.90;;;;;;5114873;28;19924;-41
2023/10/15 02:24:39;;;;;;;;;;;8.20;99.90;;;;;;5114544;28;19968;-41
2023/10/15 02:27:06;;;;;;;;;;;8.20;99.90;;;;;;5114959;28;19931;-41
2023/10/15 02:29:35;;;;;;;;;;;8.20;99.90;;;;;;5114577;28;20371;-41
2023/10/15 02:34:57;;;;;;;;;;;8.10;99.90;;;;;;5105104;28;19923;-41
2023/10/15 02:37:26;;;;;;;;;;;8.00;99.90;;;;;;5113514;28;19927;-41
2023/10/15 02:39:51;;;;;;;;;;;8.00;99.90;;;;;;5114728;28;19991;-41
2023/10/15 02:42:20;;;;;;;;;;;8.00;99.90;;;;;;5114534;28;20042;-41
2023/10/15 02:44:50;;;;;;;;;;;7.90;99.90;;;;;;5114528;28;19923;-41
2023/10/15 02:47:19;;;;;;;;;;;8.00;99.90;;;;;;5114523;28;19924;-41
2023/10/15 02:50:23;;;;;;;;;;;8.00;99.90;;;;;;5114491;28;19924;-40
2023/10/15 02:52:44;;;;;;;;;;;7.90;99.90;;;;;;5112225;28;20018;-41
2023/10/15 02:55:11;;;;;;;;;;;7.90;99.90;;;;;;5114501;28;19931;-41
2023/10/15 02:57:38;;;;;;;;;;;7.90;99.90;;;;;;5114429;28;20065;-41
2023/10/15 03:00:28;;;;;;;;;;;7.90;99.90;;;;;;5114298;28;20302;-41
2023/10/15 03:02:57;;;;;;;;;;;7.90;99.90;;;;;;5114519;28;20336;-41
2023/10/15 03:05:30;;;;;;;;;;;7.80;99.90;;;;;;5114446;28;19924;-41
2023/10/15 03:07:56;;;;;;;;;;;7.80;99.90;;;;;;5113180;28;19931;-41
2023/10/15 03:10:21;;;;;;;;;;;7.90;99.90;;;;;;5114007;28;19924;-40
2023/10/15 03:12:50;;;;;;;;;;;7.80;99.90;;;;;;5114136;28;19949;-40
2023/10/15 03:15:17;;;;;;;;;;;7.90;99.90;;;;;;5113422;28;21338;-41
2023/10/15 03:17:43;;;;;;;;;;;7.80;99.90;;;;;;5114317;28;19951;-41
2023/10/15 03:20:22;;;;;;;;;;;7.70;99.90;;;;;;5114123;28;19977;-41
2023/10/15 03:22:51;;;;;;;;;;;7.70;99.90;;;;;;5113303;28;19927;-41
2023/10/15 03:25:17;;;;;;;;;;;7.60;99.90;;;;;;5114198;28;19988;-41
2023/10/15 03:27:46;;;;;;;;;;;7.60;99.90;;;;;;5114239;28;19923;-41
2023/10/15 03:30:15;;;;;;;;;;;7.50;99.90;;;;;;5114153;28;19942;-40
2023/10/15 03:32:44;;;;;;;;;;;7.50;99.90;;;;;;5113470;28;19924;-40
2023/10/15 03:35:32;;;;;;;;;;;7.50;99.90;;;;;;5114192;28;20011;-40
2023/10/15 03:38:03;;;;;;;;;;;7.50;99.90;;;;;;5114523;28;19928;-40
2023/10/15 03:40:38;;;;;;;;;;;7.50;99.90;;;;;;5117985;28;19923;-40
2023/10/15 03:43:06;;;;;;;;;;;7.50;99.90;;;;;;5118082;28;20439;-40
2023/10/15 03:45:33;;;;;;;;;;;7.50;99.90;;;;;;5117781;28;19931;-40
2023/10/15 03:48:00;;;;;;;;;;;7.50;99.90;;;;;;5117486;28;20005;-40
2023/10/15 03:50:29;;;;;;;;;;;7.50;99.90;;;;;;5117788;28;20290;-40
2023/10/15 03:52:56;;;;;;;;;;;7.60;99.90;;;;;;5117454;28;20371;-39
2023/10/15 03:55:21;;;;;;;;;;;7.50;99.90;;;;;;5117680;28;19923;-40
2023/10/15 03:57:51;;;;;;;;;;;7.50;99.90;;;;;;5117494;28;19934;-40
2023/10/15 04:00:26;;;;;;;;;;;7.60;99.90;;;;;;5117472;28;19928;-39
2023/10/15 04:03:06;;;;;;;;;;;7.60;99.90;;;;;;5117335;28;20390;-40
2023/10/15 04:05:33;;;;;;;;;;;7.60;99.90;;;;;;5117458;28;20015;-39
2023/10/15 04:07:59;;;;;;;;;;;7.60;99.90;;;;;;5117361;28;19928;-40
2023/10/15 04:10:33;;;;;;;;;;;7.60;99.90;;;;;;5117320;28;19931;-39
2023/10/15 04:12:59;;;;;;;;;;;7.70;99.90;;;;;;5117444;28;19992;-40
2023/10/15 04:15:25;;;;;;;;;;;7.70;99.90;;;;;;5116009;28;20367;-40
2023/10/15 04:17:52;;;;;;;;;;;7.70;99.90;;;;;;5117322;28;19947;-40
2023/10/15 04:20:35;;;;;;;;;;;7.70;99.90;;;;;;5117267;28;20390;-40
2023/10/15 04:23:00;;;;;;;;;;;7.70;99.90;;;;;;5117162;28;20000;-40
2023/10/15 04:25:32;;;;;;;;;;;7.60;99.90;;;;;;5116082;28;19951;-40
2023/10/15 04:28:08;;;;;;;;;;;7.60;99.90;;;;;;5116083;28;19928;-39
2023/10/15 04:30:36;;;;;;;;;;;7.60;99.90;;;;;;5117405;28;19930;-40
2023/10/15 04:33:02;;;;;;;;;;;7.60;99.90;;;;;;5116818;28;19946;-39
2023/10/15 04:35:32;;;;;;;;;;;7.60;99.90;;;;;;5116775;28;19981;-39
2023/10/15 04:37:59;;;;;;;;;;;7.60;99.90;;;;;;5116739;27;20022;-40
2023/10/15 04:40:24;;;;;;;;;;;7.60;99.90;;;;;;5117140;27;19979;-39
2023/10/15 04:42:50;;;;;;;;;;;7.50;99.90;;;;;;5116751;28;20357;-40
2023/10/15 04:48:01;;;;;;;;;;;7.50;99.90;;;;;;5116607;27;19931;-39
2023/10/15 04:50:34;;;;;;;;;;;7.50;99.90;;;;;;5116110;28;19931;-40
2023/10/15 04:53:13;;;;;;;;;;;7.50;99.90;;;;;;5116733;27;20388;-39
2023/10/15 04:55:42;;;;;;;;;;;7.40;99.90;;;;;;5116584;28;19932;-40
2023/10/15 04:58:08;;;;;;;;;;;7.40;99.90;;;;;;5116753;28;19924;-39
2023/10/15 05:00:35;;;;;;;;;;;7.40;99.90;;;;;;5116385;28;19931;-39
2023/10/15 05:03:01;;;;;;;;;;;7.40;99.90;;;;;;5116141;28;19971;-40
2023/10/15 05:05:26;;;;;;;;;;;7.40;99.90;;;;;;5116296;28;20370;-40
2023/10/15 05:07:57;;;;;;;;;;;7.40;99.90;;;;;;5116776;28;19924;-39
2023/10/15 05:10:23;;;;;;;;;;;7.40;99.90;;;;;;5115002;28;19923;-39
2023/10/15 05:12:51;;;;;;;;;;;7.40;99.90;;;;;;5116140;28;19924;-40
2023/10/15 05:15:18;;;;;;;;;;;7.40;99.90;;;;;;5116476;28;19932;-40
2023/10/15 05:17:46;;;;;;;;;;;7.50;99.90;;;;;;5116043;28;19992;-40
2023/10/15 05:20:13;;;;;;;;;;;7.50;99.90;;;;;;5116000;28;19927;-40
2023/10/15 05:22:42;;;;;;;;;;;7.40;99.90;;;;;;5115975;28;19977;-40
2023/10/15 05:25:17;;;;;;;;;;;7.50;99.90;;;;;;5116071;28;19934;-40
2023/10/15 05:27:45;;;;;;;;;;;7.50;99.90;;;;;;5115943;28;19930;-40
2023/10/15 05:30:12;;;;;;;;;;;7.40;99.90;;;;;;5114585;28;20286;-40
2023/10/15 05:32:37;;;;;;;;;;;7.50;99.90;;;;;;5116181;28;19924;-40
2023/10/15 05:35:03;;;;;;;;;;;7.50;99.90;;;;;;5115667;28;19924;-40
2023/10/15 05:37:29;;;;;;;;;;;7.40;99.90;;;;;;5115904;28;19993;-40
2023/10/15 05:39:54;;;;;;;;;;;7.50;99.90;;;;;;5115489;27;20290;-40
2023/10/15 05:42:20;;;;;;;;;;;7.50;99.90;;;;;;5115628;27;19924;-40
2023/10/15 05:44:46;;;;;;;;;;;7.50;99.90;;;;;;5115412;28;19927;-40
2023/10/15 05:47:11;;;;;;;;;;;7.40;99.90;;;;;;5115342;28;19928;-40
2023/10/15 05:49:37;;;;;;;;;;;7.40;99.90;;;;;;5115426;28;19927;-40
2023/10/15 05:52:03;;;;;;;;;;;7.50;99.90;;;;;;5115543;28;19924;-40
2023/10/15 05:54:31;;;;;;;;;;;7.50;99.90;;;;;;5115280;28;19923;-40
2023/10/15 05:56:57;;;;;;;;;;;7.50;99.90;;;;;;5115236;27;20287;-40
2023/10/15 05:59:22;;;;;;;;;;;7.50;99.90;;;;;;5115050;28;19969;-40
2023/10/15 06:01:48;;;;;;;;;;;7.60;99.90;;;;;;5113817;28;19931;-39
2023/10/15 06:04:13;;;;;;;;;;;7.60;99.90;;;;;;5115176;28;20409;-40
2023/10/15 06:06:39;;;;;;;;;;;7.50;99.90;;;;;;5114243;28;20394;-40
2023/10/15 06:09:05;;;;;;;;;;;7.60;99.90;;;;;;5115020;28;20397;-39
2023/10/15 06:11:30;;;;;;;;;;;7.60;99.90;;;;;;5114995;28;19923;-40
2023/10/15 06:13:56;;;;;;;;;;;7.60;99.90;;;;;;5114554;28;19923;-40
2023/10/15 06:16:22;;;;;;;;;;;7.60;99.90;;;;;;5114939;28;19947;-40
2023/10/15 06:18:47;;;;;;;;;;;7.60;99.90;;;;;;5114977;28;20255;-40
2023/10/15 06:21:14;;;;;;;;;;;7.60;99.90;;;;;;5114957;28;20063;-40
2023/10/15 06:23:39;;;;;;;;;;;7.60;99.90;;;;;;5114820;28;19924;-40
2023/10/15 06:26:06;;;;;;;;;;;7.60;99.90;;;;;;5114534;28;19931;-39
2023/10/15 06:28:32;;;;;;;;;;;7.60;99.90;;;;;;5114699;28;19947;-40
2023/10/15 06:30:57;;;;;;;;;;;7.60;99.90;;;;;;5114768;28;20367;-40
2023/10/15 06:33:23;;;;;;;;;;;7.60;99.90;;;;;;5114650;28;19924;-40
2023/10/15 06:35:51;;;;;;;;;;;7.50;99.90;;;;;;5114672;28;19924;-40
2023/10/15 06:38:17;;;;;;;;;;;7.50;99.90;;;;;;5114728;28;20375;-40
2023/10/15 06:40:43;;;;;;;;;;;7.40;99.90;;;;;;5114523;28;19985;-40
2023/10/15 06:43:09;;;;;;;;;;;7.40;99.90;;;;;;5114366;28;20370;-40
2023/10/15 06:45:34;;;;;;;;;;;7.40;99.90;;;;;;5114402;28;19977;-40
2023/10/15 06:48:01;;;;;;;;;;;7.40;99.90;;;;;;5114469;28;19923;-40
2023/10/15 06:50:26;;;;;;;;;;;7.40;99.90;;;;;;5114580;28;19930;-39
2023/10/15 06:52:52;;;;;;;;;;;7.40;99.90;;;;;;5113585;28;20007;-39
2023/10/15 06:55:20;;;;;;;;;;;7.40;99.90;;;;;;5114521;28;20332;-39
2023/10/15 06:57:45;;;;;;;;;;;7.40;99.90;;;;;;5114430;28;19924;-40
2023/10/15 07:00:12;;;;;;;;;;;7.40;99.90;;;;;;5114674;28;19935;-39
2023/10/15 07:02:38;;;;;;;;;;;7.40;99.90;;;;;;5114495;28;19923;-39
2023/10/15 07:05:04;;;;;;;;;;;7.40;99.90;;;;;;5114232;28;20298;-39
2023/10/15 07:07:31;;;;;;;;;;;7.40;99.90;;;;;;5114384;28;19976;-41
2023/10/15 07:09:59;;;;;;;;;;;7.50;99.90;;;;;;5114222;28;19935;-40
2023/10/15 07:12:25;;;;;;;;;;;7.60;99.90;;;;;;5114215;28;19923;-39
2023/10/15 07:14:50;;;;;;;;;;;7.60;99.90;;;;;;5117512;28;19930;-40
2023/10/15 07:17:17;;;;;;;;;;;7.60;99.90;;;;;;5118409;28;19923;-39
2023/10/15 07:19:43;;;;;;;;;;;7.70;99.90;;;;;;5118454;28;19923;-39
2023/10/15 07:22:08;;;;;;;;;;;7.70;99.90;;;;;;5118383;28;20260;-41
2023/10/15 07:24:34;;;;;;;;;;;7.60;99.90;;;;;;5118225;28;20325;-40
2023/10/15 07:27:01;;;;;;;;;;;7.70;99.90;;;;;;5117098;28;19924;-40
2023/10/15 07:29:28;;;;;;;;;;;7.70;99.90;;;;;;5118279;28;19947;-40
2023/10/15 07:31:53;;;;;;;;;;;7.70;99.90;;;;;;5118580;28;20026;-40
2023/10/15 07:34:19;;;;;;;;;;;7.60;99.90;;;;;;5117945;28;19975;-40
2023/10/15 07:36:45;;;;;;;;;;;7.70;99.90;;;;;;5117918;28;19931;-40
2023/10/15 07:39:10;;;;;;;;;;;7.70;99.90;;;;;;5118052;28;19924;-40
2023/10/15 07:41:37;;;;;;;;;;;7.70;99.90;;;;;;5117921;28;19991;-41
2023/10/15 07:44:03;;;;;;;;;;;7.70;99.90;;;;;;5117023;28;19930;-41
2023/10/15 07:46:29;;;;;;;;;;;7.80;99.90;;;;;;5117902;28;19924;-40
2023/10/15 07:48:55;;;;;;;;;;;7.80;99.90;;;;;;5117761;28;20041;-40
2023/10/15 07:51:21;;;;;;;;;;;7.80;99.90;;;;;;5117736;28;19924;-41
2023/10/15 07:53:46;;;;;;;;;;;7.80;99.90;;;;;;5117610;28;19935;-41
2023/10/15 07:56:14;;;;;;;;;;;7.80;99.90;;;;;;5117465;28;19985;-41
2023/10/15 07:58:43;;;;;;;;;;;7.80;99.90;;;;;;5117755;28;19928;-41
2023/10/15 08:01:08;;;;;;;;;;;7.80;99.90;;;;;;5117506;28;19923;-40
2023/10/15 08:03:34;;;;;;;;;;;7.80;99.90;;;;;;5117742;28;19923;-41
2023/10/15 08:06:02;;;;;;;;;;;7.80;99.90;;;;;;5117380;28;19931;-41
2023/10/15 08:08:28;;;;;;;;;;;7.80;99.90;;;;;;5117551;28;20294;-41
2023/10/15 08:10:55;;;;;;;;;;;7.80;99.90;;;;;;5117139;28;19924;-41
2023/10/15 08:13:21;;;;;;;;;;;7.80;99.90;;;;;;5116458;28;20006;-41
2023/10/15 08:15:47;;;;;;;;;;;7.80;99.90;;;;;;5117145;28;19978;-40
2023/10/15 08:18:12;;;;;;;;;;;7.90;99.90;;;;;;5117334;28;19924;-41
2023/10/15 08:20:38;;;;;;;;;;;7.90;99.90;;;;;;5116992;28;20378;-41
2023/10/15 08:23:04;;;;;;;;;;;8.00;99.90;;;;;;5117014;28;19927;-42
2023/10/15 08:25:31;;;;;;;;;;;8.00;99.90;;;;;;5116339;28;19924;-41
2023/10/15 08:27:57;;;;;;;;;;;8.10;99.90;;;;;;5116975;28;19934;-41
2023/10/15 08:30:23;;;;;;;;;;;8.10;99.90;;;;;;5116793;27;19924;-41
2023/10/15 08:32:49;;;;;;;;;;;8.20;99.90;;;;;;5117247;28;19923;-40
2023/10/15 08:35:15;;;;;;;;;;;8.20;99.90;;;;;;5116944;28;19931;-41
2023/10/15 08:37:41;;;;;;;;;;;8.20;99.90;;;;;;5116850;28;20405;-41
2023/10/15 08:40:07;;;;;;;;;;;8.20;99.90;;;;;;5116707;28;19934;-41
2023/10/15 08:42:36;;;;;;;;;;;8.10;99.90;;;;;;5116892;28;20010;-40
2023/10/15 08:45:04;;;;;;;;;;;8.00;99.90;;;;;;5116837;28;19981;-40
2023/10/15 08:47:32;;;;;;;;;;;7.90;99.90;;;;;;5116606;28;20282;-41
2023/10/15 08:49:59;;;;;;;;;;;7.80;99.90;;;;;;5116614;28;19963;-41
2023/10/15 08:52:26;;;;;;;;;;;7.70;99.90;;;;;;5116343;28;20313;-41
2023/10/15 08:54:53;;;;;;;;;;;7.70;99.90;;;;;;5116946;28;19928;-41
2023/10/15 08:57:19;;;;;;;;;;;7.60;99.90;;;;;;5115281;28;19931;-41
2023/10/15 08:59:45;;;;;;;;;;;7.60;99.90;;;;;;5116671;28;19924;-41
2023/10/15 09:02:10;;;;;;;;;;;7.60;99.90;;;;;;5116308;28;19924;-41
2023/10/15 09:04:36;;;;;;;;;;;7.60;99.90;;;;;;5116183;28;20061;-41
2023/10/15 09:07:02;;;;;;;;;;;7.60;99.90;;;;;;5116011;28;20297;-41
2023/10/15 09:09:34;;;;;;;;;;;7.60;99.90;;;;;;5116075;27;19930;-41
2023/10/15 09:12:00;;;;;;;;;;;7.60;99.90;;;;;;5115990;28;20363;-41
2023/10/15 09:14:38;;;;;;;;;;;7.60;99.90;;;;;;5115988;28;20434;-41
2023/10/15 09:17:09;;;;;;;;;;;7.70;99.90;;;;;;5116337;27;19923;-41
2023/10/15 09:19:36;;;;;;;;;;;7.70;99.90;;;;;;5115864;28;20383;-41
2023/10/15 09:22:03;;;;;;;;;;;7.70;99.90;;;;;;5116082;28;19927;-40
2023/10/15 09:24:29;;;;;;;;;;;7.80;99.90;;;;;;5115971;27;19950;-41
2023/10/15 09:26:57;;;;;;;;;;;7.80;99.90;;;;;;5115854;28;19924;-41
2023/10/15 09:29:22;;;;;;;;;;;7.80;99.90;;;;;;5115816;28;19973;-45
2023/10/15 09:31:51;;;;;;;;;;;7.90;99.90;;;;;;5116027;28;19963;-40
2023/10/15 09:34:18;;;;;;;;;;;8.00;99.90;;;;;;5115541;28;20028;-41
2023/10/15 09:36:43;;;;;;;;;;;8.10;99.90;;;;;;5113947;28;19924;-41
2023/10/15 09:39:13;;;;;;;;;;;8.20;99.90;;;;;;5115622;28;19924;-41
2023/10/15 09:41:41;;;;;;;;;;;8.30;99.90;;;;;;5115675;27;20378;-40
2023/10/15 09:44:09;;;;;;;;;;;8.50;99.90;;;;;;5115705;28;19950;-40
2023/10/15 09:46:35;;;;;;;;;;;8.60;99.90;;;;;;5114546;28;19924;-40
2023/10/15 09:49:04;;;;;;;;;;;8.70;99.90;;;;;;5115224;28;19923;-41
2023/10/15 09:51:32;;;;;;;;;;;8.80;99.90;;;;;;5115467;28;19924;-41
2023/10/15 09:53:59;;;;;;;;;;;8.90;99.90;;;;;;5115562;28;19934;-42
2023/10/15 09:56:26;;;;;;;;;;;9.00;99.90;;;;;;5115341;28;19923;-42
2023/10/15 09:58:53;;;;;;;;;;;9.10;99.90;;;;;;5115246;28;19923;-41
2023/10/15 10:01:28;;;;;;;;;;;9.30;99.90;;;;;;5115283;28;19924;-42
2023/10/15 10:04:15;;;;;;;;;;;9.40;99.90;;;;;;5115941;28;19924;-41
2023/10/15 10:06:47;;;;;;;;;;;9.40;99.90;;;;;;5114952;28;19924;-42
2023/10/15 10:09:25;;;;;;;;;;;9.50;99.90;;;;;;5115354;28;19927;-42
2023/10/15 10:12:11;;;;;;;;;;;9.50;99.90;;;;;;5114868;28;19931;-42
2023/10/15 10:14:43;;;;;;;;;;;9.60;99.90;;;;;;5114988;28;19981;-41
2023/10/15 10:17:11;;;;;;;;;;;9.60;99.90;;;;;;5115065;28;19924;-41
2023/10/15 10:19:39;;;;;;;;;;;9.60;99.90;;;;;;5115046;28;19927;-42
2023/10/15 10:22:18;;;;;;;;;;;9.50;99.90;;;;;;5114907;28;19924;-42
2023/10/15 10:24:43;;;;;;;;;;;9.40;99.90;;;;;;5114890;28;19923;-42
2023/10/15 10:27:17;;;;;;;;;;;9.20;99.90;;;;;;5114936;28;19931;-41
2023/10/15 10:29:43;;;;;;;;;;;9.10;99.90;;;;;;5114753;28;19924;-41
2023/10/15 10:32:11;;;;;;;;;;;9.00;99.90;;;;;;5114695;28;20086;-41
2023/10/15 10:34:36;;;;;;;;;;;8.90;99.90;;;;;;5114500;28;19923;-42
2023/10/15 10:37:03;;;;;;;;;;;8.80;99.90;;;;;;5114408;28;19946;-40
2023/10/15 10:39:42;;;;;;;;;;;8.70;99.90;;;;;;5113648;28;20018;-41
2023/10/15 10:42:18;;;;;;;;;;;8.70;99.90;;;;;;5114744;28;19931;-41
2023/10/15 10:44:44;;;;;;;;;;;8.70;99.90;;;;;;5114618;28;19923;-41
2023/10/15 10:47:24;;;;;;;;;;;8.70;99.90;;;;;;5114024;28;19931;-42
2023/10/15 10:49:55;;;;;;;;;;;8.80;99.90;;;;;;5113656;28;20428;-42
2023/10/15 10:52:30;;;;;;;;;;;8.90;99.90;;;;;;5114452;28;19964;-41
2023/10/15 10:55:16;;;;;;;;;;;9.00;99.90;;;;;;5114511;28;19947;-42
2023/10/15 10:57:42;;;;;;;;;;;9.10;99.90;;;;;;5130261;28;20352;-41
2023/10/15 11:00:16;;;;;;;;;;;9.10;99.90;;;;;;5113640;28;19959;-41
2023/10/15 11:02:41;;;;;;;;;;;9.20;99.90;;;;;;5114667;28;19924;-42
2023/10/15 11:05:11;;;;;;;;;;;9.30;99.90;;;;;;5114317;28;19928;-42
2023/10/15 11:07:37;;;;;;;;;;;9.50;99.90;;;;;;5114073;28;19924;-42
2023/10/15 11:10:05;;;;;;;;;;;9.70;99.90;;;;;;5114142;28;19927;-42
2023/10/15 11:12:31;;;;;;;;;;;9.70;99.90;;;;;;5114373;28;19924;-42
2023/10/15 11:14:57;;;;;;;;;;;9.80;99.90;;;;;;5114186;28;19928;-41
2023/10/15 11:17:23;;;;;;;;;;;9.90;99.90;;;;;;5114212;28;20416;-42
2023/10/15 11:19:48;;;;;;;;;;;9.90;99.90;;;;;;5114348;28;19969;-41
2023/10/15 11:22:14;;;;;;;;;;;10.00;99.90;;;;;;5114064;28;19931;-42
2023/10/15 11:24:39;;;;;;;;;;;10.20;99.90;;;;;;5114124;28;20279;-42
2023/10/15 11:27:11;;;;;;;;;;;10.40;99.90;;;;;;5114038;28;19930;-41
2023/10/15 11:29:37;;;;;;;;;;;10.50;99.90;;;;;;5114278;28;20419;-41
2023/10/15 11:32:06;;;;;;;;;;;10.60;99.90;;;;;;5114041;28;19975;-42
2023/10/15 11:34:33;;;;;;;;;;;10.60;99.90;;;;;;5114050;28;19950;-41
2023/10/15 11:37:01;;;;;;;;;;;10.50;99.90;;;;;;5113982;28;19931;-41
2023/10/15 11:39:37;;;;;;;;;;;10.40;99.90;;;;;;5113954;28;19924;-41
2023/10/15 11:42:03;;;;;;;;;;;10.20;99.90;;;;;;5114348;28;19931;-41
2023/10/15 11:44:32;;;;;;;;;;;10.20;99.90;;;;;;5114137;28;19977;-41
2023/10/15 11:47:00;;;;;;;;;;;10.20;99.90;;;;;;5113798;28;19928;-41
2023/10/15 11:49:26;;;;;;;;;;;10.30;99.90;;;;;;5112920;28;20010;-41
2023/10/15 11:51:55;;;;;;;;;;;10.40;99.90;;;;;;5113672;28;20390;-41
2023/10/15 11:54:28;;;;;;;;;;;10.50;99.90;;;;;;5113957;28;20371;-41
2023/10/15 11:56:54;;;;;;;;;;;10.60;99.90;;;;;;5113015;28;20347;-41
2023/10/15 11:59:23;;;;;;;;;;;10.70;99.90;;;;;;5114743;28;19924;-42
2023/10/15 12:01:51;;;;;;;;;;;10.80;99.90;;;;;;5117586;28;19986;-41
2023/10/15 12:04:19;;;;;;;;;;;10.90;99.90;;;;;;5117460;28;19927;-42
2023/10/15 12:06:44;;;;;;;;;;;11.00;99.90;;;;;;5117359;28;19932;-41
2023/10/15 12:09:16;;;;;;;;;;;11.10;99.90;;;;;;5133326;27;19969;-41
2023/10/15 12:11:42;;;;;;;;;;;11.20;99.90;;;;;;5117487;28;19931;-41
2023/10/15 12:14:08;;;;;;;;;;;11.10;99.90;;;;;;5117195;28;19927;-41
2023/10/15 12:16:39;;;;;;;;;;;11.10;99.90;;;;;;5117164;28;19967;-42
2023/10/15 12:19:06;;;;;;;;;;;10.90;99.90;;;;;;5116130;28;19931;-41
2023/10/15 12:21:31;;;;;;;;;;;10.80;99.90;;;;;;5117197;28;19924;-42
2023/10/15 12:23:58;;;;;;;;;;;10.70;99.90;;;;;;5117118;28;19955;-42
2023/10/15 12:26:23;;;;;;;;;;;10.60;99.90;;;;;;5115961;28;19924;-42
2023/10/15 12:28:51;;;;;;;;;;;10.60;99.90;;;;;;5116890;28;19930;-42
2023/10/15 12:31:17;;;;;;;;;;;10.50;99.90;;;;;;5116957;28;20309;-41
2023/10/15 12:33:43;;;;;;;;;;;10.40;99.90;;;;;;5116842;28;20014;-42
2023/10/15 12:36:09;;;;;;;;;;;10.30;99.90;;;;;;5116951;28;19931;-42
2023/10/15 12:38:35;;;;;;;;;;;10.30;99.90;;;;;;5116974;28;19931;-42
2023/10/15 12:41:01;;;;;;;;;;;10.20;99.90;;;;;;5116944;28;19975;-43
2023/10/15 12:43:26;;;;;;;;;;;10.20;99.90;;;;;;5116805;28;20407;-41
2023/10/15 12:45:53;;;;;;;;;;;10.10;99.90;;;;;;5116721;28;19924;-41
2023/10/15 12:48:20;;;;;;;;;;;10.00;99.90;;;;;;5116433;28;19949;-42
2023/10/15 12:50:49;;;;;;;;;;;9.80;99.90;;;;;;5116661;28;19928;-41
2023/10/15 12:53:15;;;;;;;;;;;9.60;99.90;;;;;;5116535;28;20370;-42
2023/10/15 12:55:41;;;;;;;;;;;9.40;99.90;;;;;;5115768;28;19923;-41
2023/10/15 12:58:09;;;;;;;;;;;9.40;99.90;;;;;;5116420;28;19923;-41
2023/10/15 13:00:39;;;;;;;;;;;9.30;99.90;;;;;;5116397;28;19978;-41
2023/10/15 13:03:05;;;;;;;;;;;9.30;99.90;;;;;;5116703;28;19975;-41
2023/10/15 13:05:31;;;;;;;;;;;9.40;99.90;;;;;;5116416;28;20363;-41
2023/10/15 13:07:56;;;;;;;;;;;9.40;99.90;;;;;;5116249;28;20394;-41
2023/10/15 13:10:22;;;;;;;;;;;9.50;99.90;;;;;;5116128;28;19969;-41
2023/10/15 13:12:48;;;;;;;;;;;9.50;99.90;;;;;;5116128;27;19928;-42
2023/10/15 13:15:14;;;;;;;;;;;9.60;99.90;;;;;;5116036;28;19924;-41
2023/10/15 13:17:40;;;;;;;;;;;9.70;99.90;;;;;;5115824;28;20302;-42
2023/10/15 13:20:06;;;;;;;;;;;9.80;99.90;;;;;;5116131;28;19924;-41
2023/10/15 13:22:34;;;;;;;;;;;10.00;99.90;;;;;;5116072;28;20271;-41
2023/10/15 13:25:00;;;;;;;;;;;10.10;99.90;;;;;;5115990;28;19927;-41
2023/10/15 13:27:26;;;;;;;;;;;10.20;99.90;;;;;;5115881;28;19927;-43
2023/10/15 13:29:52;;;;;;;;;;;10.30;99.90;;;;;;5114810;28;20279;-42
2023/10/15 13:32:18;;;;;;;;;;;10.30;99.90;;;;;;5115792;28;19927;-41
2023/10/15 13:34:43;;;;;;;;;;;10.30;99.90;;;;;;5115727;28;19928;-41
2023/10/15 13:37:12;;;;;;;;;;;10.30;99.90;;;;;;5115736;28;19923;-41
2023/10/15 13:39:39;;;;;;;;;;;10.40;99.90;;;;;;5115145;28;19949;-41
2023/10/15 13:42:05;;;;;;;;;;;10.50;99.90;;;;;;5115716;28;19924;-42
2023/10/15 13:44:31;;;;;;;;;;;10.60;99.90;;;;;;5115499;28;19931;-42
2023/10/15 13:46:57;;;;;;;;;;;10.60;99.90;;;;;;5115233;28;19927;-42
2023/10/15 13:49:23;;;;;;;;;;;10.60;99.90;;;;;;5115738;28;19981;-41
2023/10/15 13:51:49;;;;;;;;;;;10.60;99.90;;;;;;5115322;28;19930;-42
2023/10/15 13:54:15;;;;;;;;;;;10.60;99.90;;;;;;5115780;28;19923;-41
2023/10/15 13:56:41;;;;;;;;;;;10.60;99.90;;;;;;5115224;28;19924;-41
2023/10/15 13:59:11;;;;;;;;;;;10.60;99.90;;;;;;5115414;28;20305;-43
2023/10/15 14:01:37;;;;;;;;;;;10.60;99.90;;;;;;5115273;28;19924;-43
2023/10/15 14:04:06;;;;;;;;;;;10.70;99.90;;;;;;5115198;28;19924;-42
2023/10/15 14:06:32;;;;;;;;;;;10.70;99.90;;;;;;5115506;28;19924;-44
2023/10/15 14:08:58;;;;;;;;;;;10.70;99.90;;;;;;5115036;28;19973;-41
2023/10/15 14:11:23;;;;;;;;;;;10.80;99.90;;;;;;5115099;28;19927;-42
2023/10/15 14:13:49;;;;;;;;;;;10.80;99.90;;;;;;5114922;28;20280;-43
2023/10/15 14:16:14;;;;;;;;;;;10.70;99.90;;;;;;5114811;28;20049;-42
2023/10/15 14:18:41;;;;;;;;;;;10.70;99.90;;;;;;5115019;28;20320;-43
2023/10/15 14:21:08;;;;;;;;;;;10.60;99.90;;;;;;5115007;28;19968;-44
2023/10/15 14:23:34;;;;;;;;;;;10.60;99.90;;;;;;5114486;28;20023;-42
2023/10/15 14:26:00;;;;;;;;;;;10.70;99.90;;;;;;5114908;28;20317;-42
2023/10/15 14:28:26;;;;;;;;;;;10.70;99.90;;;;;;5113585;28;20053;-42
2023/10/15 14:30:52;;;;;;;;;;;10.70;99.90;;;;;;5114617;28;19932;-41
2023/10/15 14:33:18;;;;;;;;;;;10.80;99.90;;;;;;5114862;28;19977;-42
2023/10/15 14:35:43;;;;;;;;;;;10.80;99.90;;;;;;5114697;28;19927;-42
2023/10/15 14:38:09;;;;;;;;;;;10.80;99.90;;;;;;5114650;28;19924;-43
2023/10/15 14:40:38;;;;;;;;;;;10.80;99.90;;;;;;5114383;28;19930;-42
2023/10/15 14:43:03;;;;;;;;;;;10.80;99.90;;;;;;5114436;28;20340;-42
2023/10/15 14:45:29;;;;;;;;;;;10.80;99.90;;;;;;5114774;28;19949;-42
2023/10/15 14:47:55;;;;;;;;;;;10.70;99.90;;;;;;5113410;28;19924;-40